Friday, November 24, 2017, 1:21 PM GMT
Back to Local

CXSH, Shawinigan CS , Que.

Location: , , Canada Lat: 46.583
Local Time: 1:21 PM GMT (13:21 GMT) Lon: -72.583
Time Zone: GMT Elev: 360 ft

Show me the last for .
Show Coded

Time T Td Feel RH Dir Speed Gust Alt SLP Vis Weather Sky Remarks
2017-11-24 13:00 29 23 25 79 30° 3 - - 29.89 0 None
2017-11-24 12:00 29 21 - 71 10° 1 - - 29.86 0 None
2017-11-24 11:00 30 25 24 83 320° 6 - - 29.85 0 None
2017-11-24 10:00 29 27 - 91 270° 2 - - 29.83 0 None
2017-11-24 09:00 30 27 23 90 220° 7 - - 29.81 0 None
2017-11-24 08:00 30 27 23 90 230° 7 - - 29.80 0 None
2017-11-24 07:00 29 26 23 89 230° 6 - - 29.79 0 None
2017-11-24 06:00 28 25 19 89 220° 9 - - 29.79 0 None
2017-11-24 05:00 27 24 20 88 220° 7 - - 29.79 0 None
2017-11-24 04:00 26 23 17 87 210° 9 - - 29.79 0 None
2017-11-24 03:00 26 22 16 85 210° 9 - - 29.80 0 None
2017-11-24 02:00 28 20 20 74 220° 7 - - 29.82 0 None
2017-11-24 01:00 26 20 16 77 210° 9 - - 29.84 0 None
2017-11-24 00:00 26 19 15 77 220° 10 - - 29.86 0 None
2017-11-23 23:00 25 19 16 75 210° 8 - - 29.88 0 None
2017-11-23 22:00 25 18 11 73 210° 13 18 - 29.88 0 None
2017-11-23 21:00 24 17 11 73 210° 12 17 - 29.90 0 None
2017-11-23 20:00 26 17 13 67 200° 12 17 - 29.91 0 None
2017-11-23 19:00 24 16 14 70 210° 9 - - 29.93 0 None
2017-11-23 18:00 25 16 14 69 190° 12 - - 29.95 0 None
2017-11-23 17:00 24 14 14 65 200° 9 - - 29.97 0 None
2017-11-23 16:00 23 13 14 64 210° 8 - - 30.01 0 None
2017-11-23 15:00 21 13 13 69 250° 6 - - 30.04 0 None
2017-11-23 14:00 19 11 9 70 230° 9 - - 30.06 0 None

Support USWX by starting your Amazon purchase here.